sensor_id;sensor_type;location;lat;lon;timestamp;temperature;humidity
18541;DHT22;9400;50.924;5.328;2023-03-23T00:01:05;13.10;99.90
18541;DHT22;9400;50.924;5.328;2023-03-23T00:03:32;13.10;99.90
18541;DHT22;9400;50.924;5.328;2023-03-23T00:06:00;13.10;99.90
18541;DHT22;9400;50.924;5.328;2023-03-23T00:08:33;13.10;99.90
18541;DHT22;9400;50.924;5.328;2023-03-23T00:11:05;13.10;99.90
18541;DHT22;9400;50.924;5.328;2023-03-23T00:13:33;13.10;99.90
18541;DHT22;9400;50.924;5.328;2023-03-23T00:16:01;13.10;99.90
18541;DHT22;9400;50.924;5.328;2023-03-23T00:18:28;13.10;99.90
18541;DHT22;9400;50.924;5.328;2023-03-23T00:20:56;13.10;99.90
18541;DHT22;9400;50.924;5.328;2023-03-23T00:23:25;13.10;99.90
18541;DHT22;9400;50.924;5.328;2023-03-23T00:25:55;13.10;99.90
18541;DHT22;9400;50.924;5.328;2023-03-23T00:28:55;13.10;99.90
18541;DHT22;9400;50.924;5.328;2023-03-23T00:31:26;13.10;99.90
18541;DHT22;9400;50.924;5.328;2023-03-23T00:34:08;13.20;99.90
18541;DHT22;9400;50.924;5.328;2023-03-23T00:36:38;13.10;99.90
18541;DHT22;9400;50.924;5.328;2023-03-23T00:39:09;13.10;99.90
18541;DHT22;9400;50.924;5.328;2023-03-23T00:41:38;13.20;99.90
18541;DHT22;9400;50.924;5.328;2023-03-23T00:44:07;13.20;99.90
18541;DHT22;9400;50.924;5.328;2023-03-23T00:46:35;13.20;99.90
18541;DHT22;9400;50.924;5.328;2023-03-23T00:49:11;13.20;99.90
18541;DHT22;9400;50.924;5.328;2023-03-23T00:51:39;13.20;99.90
18541;DHT22;9400;50.924;5.328;2023-03-23T00:54:08;13.20;99.90
18541;DHT22;9400;50.924;5.328;2023-03-23T00:56:36;13.10;99.90
18541;DHT22;9400;50.924;5.328;2023-03-23T00:59:05;13.10;99.90
18541;DHT22;9400;50.924;5.328;2023-03-23T01:01:34;13.10;99.90
18541;DHT22;9400;50.924;5.328;2023-03-23T01:04:03;13.10;99.90
18541;DHT22;9400;50.924;5.328;2023-03-23T01:06:32;13.10;99.90
18541;DHT22;9400;50.924;5.328;2023-03-23T01:09:01;13.10;99.90
18541;DHT22;9400;50.924;5.328;2023-03-23T01:11:29;13.00;99.90
18541;DHT22;9400;50.924;5.328;2023-03-23T01:13:56;13.00;99.90
18541;DHT22;9400;50.924;5.328;2023-03-23T01:16:24;13.00;99.90
18541;DHT22;9400;50.924;5.328;2023-03-23T01:18:53;13.10;99.90
18541;DHT22;9400;50.924;5.328;2023-03-23T01:21:21;13.00;99.90
18541;DHT22;9400;50.924;5.328;2023-03-23T01:23:51;13.00;99.90
18541;DHT22;9400;50.924;5.328;2023-03-23T01:26:20;13.00;99.90
18541;DHT22;9400;50.924;5.328;2023-03-23T01:28:48;13.00;99.90
18541;DHT22;9400;50.924;5.328;2023-03-23T01:31:18;13.00;99.90
18541;DHT22;9400;50.924;5.328;2023-03-23T01:33:46;12.90;99.90
18541;DHT22;9400;50.924;5.328;2023-03-23T01:36:19;12.90;99.90
18541;DHT22;9400;50.924;5.328;2023-03-23T01:38:49;12.90;99.90
18541;DHT22;9400;50.924;5.328;2023-03-23T01:41:18;12.90;99.90
18541;DHT22;9400;50.924;5.328;2023-03-23T01:44:00;12.90;99.90
18541;DHT22;9400;50.924;5.328;2023-03-23T01:46:29;12.90;99.90
18541;DHT22;9400;50.924;5.328;2023-03-23T01:49:00;12.90;99.90
18541;DHT22;9400;50.924;5.328;2023-03-23T01:51:36;12.90;99.90
18541;DHT22;9400;50.924;5.328;2023-03-23T01:54:07;12.90;99.90
18541;DHT22;9400;50.924;5.328;2023-03-23T01:56:40;12.90;99.90
18541;DHT22;9400;50.924;5.328;2023-03-23T01:59:11;12.90;99.90
18541;DHT22;9400;50.924;5.328;2023-03-23T02:01:40;12.90;99.90
18541;DHT22;9400;50.924;5.328;2023-03-23T02:04:11;12.90;99.90
18541;DHT22;9400;50.924;5.328;2023-03-23T02:06:42;12.90;99.90
18541;DHT22;9400;50.924;5.328;2023-03-23T02:09:13;12.90;99.90
18541;DHT22;9400;50.924;5.328;2023-03-23T02:11:43;12.90;99.90
18541;DHT22;9400;50.924;5.328;2023-03-23T02:14:12;12.90;99.90
18541;DHT22;9400;50.924;5.328;2023-03-23T02:16:44;12.90;99.90
18541;DHT22;9400;50.924;5.328;2023-03-23T02:19:27;12.90;99.90
18541;DHT22;9400;50.924;5.328;2023-03-23T02:22:24;12.90;99.90
18541;DHT22;9400;50.924;5.328;2023-03-23T02:24:57;12.90;99.90
18541;DHT22;9400;50.924;5.328;2023-03-23T02:27:43;12.90;99.90
18541;DHT22;9400;50.924;5.328;2023-03-23T02:33:31;12.90;99.90
18541;DHT22;9400;50.924;5.328;2023-03-23T02:36:05;12.90;99.90
18541;DHT22;9400;50.924;5.328;2023-03-23T02:38:38;12.90;99.90
18541;DHT22;9400;50.924;5.328;2023-03-23T02:41:09;12.90;99.90
18541;DHT22;9400;50.924;5.328;2023-03-23T02:43:42;12.90;99.90
18541;DHT22;9400;50.924;5.328;2023-03-23T02:46:11;12.90;99.90
18541;DHT22;9400;50.924;5.328;2023-03-23T02:48:42;12.90;99.90
18541;DHT22;9400;50.924;5.328;2023-03-23T02:51:12;12.90;99.90
18541;DHT22;9400;50.924;5.328;2023-03-23T02:53:42;12.90;99.90
18541;DHT22;9400;50.924;5.328;2023-03-23T02:56:11;12.90;99.90
18541;DHT22;9400;50.924;5.328;2023-03-23T02:58:39;12.90;99.90
18541;DHT22;9400;50.924;5.328;2023-03-23T03:04:32;13.00;99.90
18541;DHT22;9400;50.924;5.328;2023-03-23T03:07:18;13.00;99.90
18541;DHT22;9400;50.924;5.328;2023-03-23T03:09:55;13.00;99.90
18541;DHT22;9400;50.924;5.328;2023-03-23T03:12:31;13.00;99.90
18541;DHT22;9400;50.924;5.328;2023-03-23T03:15:09;13.00;99.90
18541;DHT22;9400;50.924;5.328;2023-03-23T03:17:42;13.00;99.90
18541;DHT22;9400;50.924;5.328;2023-03-23T03:20:15;13.00;99.90
18541;DHT22;9400;50.924;5.328;2023-03-23T03:22:46;13.00;99.90
18541;DHT22;9400;50.924;5.328;2023-03-23T03:25:15;13.00;99.90
18541;DHT22;9400;50.924;5.328;2023-03-23T03:27:45;13.00;99.90
18541;DHT22;9400;50.924;5.328;2023-03-23T03:30:20;13.00;99.90
18541;DHT22;9400;50.924;5.328;2023-03-23T03:32:52;13.00;99.90
18541;DHT22;9400;50.924;5.328;2023-03-23T03:35:22;13.00;99.90
18541;DHT22;9400;50.924;5.328;2023-03-23T03:37:52;13.00;99.90
18541;DHT22;9400;50.924;5.328;2023-03-23T03:40:21;13.00;99.90
18541;DHT22;9400;50.924;5.328;2023-03-23T03:42:49;13.00;99.90
18541;DHT22;9400;50.924;5.328;2023-03-23T03:45:19;13.10;99.90
18541;DHT22;9400;50.924;5.328;2023-03-23T03:47:47;13.00;99.90
18541;DHT22;9400;50.924;5.328;2023-03-23T03:50:14;13.10;99.90
18541;DHT22;9400;50.924;5.328;2023-03-23T03:52:44;13.10;99.90
18541;DHT22;9400;50.924;5.328;2023-03-23T03:55:11;13.00;99.90
18541;DHT22;9400;50.924;5.328;2023-03-23T03:57:39;13.00;99.90
18541;DHT22;9400;50.924;5.328;2023-03-23T04:00:09;13.00;99.90
18541;DHT22;9400;50.924;5.328;2023-03-23T04:02:41;13.10;99.90
18541;DHT22;9400;50.924;5.328;2023-03-23T04:05:10;13.00;99.90
18541;DHT22;9400;50.924;5.328;2023-03-23T04:07:37;13.00;99.90
18541;DHT22;9400;50.924;5.328;2023-03-23T04:10:08;13.00;99.90
18541;DHT22;9400;50.924;5.328;2023-03-23T04:12:37;13.00;99.90
18541;DHT22;9400;50.924;5.328;2023-03-23T04:15:06;13.00;99.90
18541;DHT22;9400;50.924;5.328;2023-03-23T04:17:34;13.00;99.90
18541;DHT22;9400;50.924;5.328;2023-03-23T04:20:04;13.00;99.90
18541;DHT22;9400;50.924;5.328;2023-03-23T04:22:37;13.00;99.90
18541;DHT22;9400;50.924;5.328;2023-03-23T04:25:07;13.00;99.90
18541;DHT22;9400;50.924;5.328;2023-03-23T04:27:38;13.00;99.90
18541;DHT22;9400;50.924;5.328;2023-03-23T04:30:10;13.00;99.90
18541;DHT22;9400;50.924;5.328;2023-03-23T04:32:39;13.00;99.90
18541;DHT22;9400;50.924;5.328;2023-03-23T04:35:10;13.00;99.90
18541;DHT22;9400;50.924;5.328;2023-03-23T04:37:38;13.00;99.90
18541;DHT22;9400;50.924;5.328;2023-03-23T04:40:09;12.90;99.90
18541;DHT22;9400;50.924;5.328;2023-03-23T04:42:39;13.00;99.90
18541;DHT22;9400;50.924;5.328;2023-03-23T04:45:09;12.90;99.90
18541;DHT22;9400;50.924;5.328;2023-03-23T04:47:37;12.90;99.90
18541;DHT22;9400;50.924;5.328;2023-03-23T04:50:10;12.90;99.90
18541;DHT22;9400;50.924;5.328;2023-03-23T04:52:40;12.90;99.90
18541;DHT22;9400;50.924;5.328;2023-03-23T04:55:13;12.90;99.90
18541;DHT22;9400;50.924;5.328;2023-03-23T04:57:41;12.90;99.90
18541;DHT22;9400;50.924;5.328;2023-03-23T05:00:10;12.80;99.90
18541;DHT22;9400;50.924;5.328;2023-03-23T05:02:40;12.80;99.90
18541;DHT22;9400;50.924;5.328;2023-03-23T05:05:09;12.90;99.90
18541;DHT22;9400;50.924;5.328;2023-03-23T05:07:38;12.90;99.90
18541;DHT22;9400;50.924;5.328;2023-03-23T05:10:07;12.80;99.90
18541;DHT22;9400;50.924;5.328;2023-03-23T05:12:38;12.80;99.90
18541;DHT22;9400;50.924;5.328;2023-03-23T05:15:08;12.80;99.90
18541;DHT22;9400;50.924;5.328;2023-03-23T05:17:37;12.80;99.90
18541;DHT22;9400;50.924;5.328;2023-03-23T05:20:05;12.80;99.90
18541;DHT22;9400;50.924;5.328;2023-03-23T05:22:35;12.80;99.90
18541;DHT22;9400;50.924;5.328;2023-03-23T05:25:04;12.80;99.90
18541;DHT22;9400;50.924;5.328;2023-03-23T05:27:37;12.80;99.90
18541;DHT22;9400;50.924;5.328;2023-03-23T05:30:09;12.80;99.90
18541;DHT22;9400;50.924;5.328;2023-03-23T05:32:38;12.80;99.90
18541;DHT22;9400;50.924;5.328;2023-03-23T05:35:06;12.80;99.90
18541;DHT22;9400;50.924;5.328;2023-03-23T05:37:34;12.80;99.90
18541;DHT22;9400;50.924;5.328;2023-03-23T05:40:03;12.70;99.90
18541;DHT22;9400;50.924;5.328;2023-03-23T05:42:33;12.70;99.90
18541;DHT22;9400;50.924;5.328;2023-03-23T05:45:04;12.70;99.90
18541;DHT22;9400;50.924;5.328;2023-03-23T05:47:32;12.60;99.90
18541;DHT22;9400;50.924;5.328;2023-03-23T05:49:59;12.60;99.90
18541;DHT22;9400;50.924;5.328;2023-03-23T05:52:28;12.60;99.90
18541;DHT22;9400;50.924;5.328;2023-03-23T05:54:58;12.60;99.90
18541;DHT22;9400;50.924;5.328;2023-03-23T05:57:26;12.70;99.90
18541;DHT22;9400;50.924;5.328;2023-03-23T05:59:54;12.60;99.90
18541;DHT22;9400;50.924;5.328;2023-03-23T06:02:25;12.60;99.90
18541;DHT22;9400;50.924;5.328;2023-03-23T06:04:55;12.60;99.90
18541;DHT22;9400;50.924;5.328;2023-03-23T06:07:24;12.60;99.90
18541;DHT22;9400;50.924;5.328;2023-03-23T06:09:52;12.60;99.90
18541;DHT22;9400;50.924;5.328;2023-03-23T06:12:20;12.60;99.90
18541;DHT22;9400;50.924;5.328;2023-03-23T06:14:48;12.70;99.90
18541;DHT22;9400;50.924;5.328;2023-03-23T06:17:16;12.70;99.90
18541;DHT22;9400;50.924;5.328;2023-03-23T06:19:47;12.70;99.90
18541;DHT22;9400;50.924;5.328;2023-03-23T06:22:16;12.70;99.90
18541;DHT22;9400;50.924;5.328;2023-03-23T06:24:44;12.70;99.90
18541;DHT22;9400;50.924;5.328;2023-03-23T06:27:12;12.70;99.90
18541;DHT22;9400;50.924;5.328;2023-03-23T06:29:40;12.70;99.90
18541;DHT22;9400;50.924;5.328;2023-03-23T06:32:19;12.70;99.90
18541;DHT22;9400;50.924;5.328;2023-03-23T06:35:17;12.80;99.90
18541;DHT22;9400;50.924;5.328;2023-03-23T06:37:59;12.80;99.90
18541;DHT22;9400;50.924;5.328;2023-03-23T06:40:28;12.80;99.90
18541;DHT22;9400;50.924;5.328;2023-03-23T06:42:57;12.80;99.90
18541;DHT22;9400;50.924;5.328;2023-03-23T06:45:25;12.80;99.90
18541;DHT22;9400;50.924;5.328;2023-03-23T06:47:53;12.80;99.90
18541;DHT22;9400;50.924;5.328;2023-03-23T06:50:22;12.80;99.90
18541;DHT22;9400;50.924;5.328;2023-03-23T06:52:50;12.90;99.90
18541;DHT22;9400;50.924;5.328;2023-03-23T06:55:18;12.80;99.90
18541;DHT22;9400;50.924;5.328;2023-03-23T06:57:46;12.90;99.90
18541;DHT22;9400;50.924;5.328;2023-03-23T07:00:15;12.90;99.90
18541;DHT22;9400;50.924;5.328;2023-03-23T07:02:43;12.90;99.90
18541;DHT22;9400;50.924;5.328;2023-03-23T07:05:12;12.90;99.90
18541;DHT22;9400;50.924;5.328;2023-03-23T07:07:41;12.90;99.90
18541;DHT22;9400;50.924;5.328;2023-03-23T07:10:09;12.90;99.90
18541;DHT22;9400;50.924;5.328;2023-03-23T07:12:37;13.00;99.90
18541;DHT22;9400;50.924;5.328;2023-03-23T07:15:06;13.00;99.90
18541;DHT22;9400;50.924;5.328;2023-03-23T07:17:36;13.00;99.90
18541;DHT22;9400;50.924;5.328;2023-03-23T07:20:04;13.00;99.90
18541;DHT22;9400;50.924;5.328;2023-03-23T07:22:33;13.00;99.90
18541;DHT22;9400;50.924;5.328;2023-03-23T07:25:02;13.10;99.90
18541;DHT22;9400;50.924;5.328;2023-03-23T07:27:30;13.10;99.90
18541;DHT22;9400;50.924;5.328;2023-03-23T07:29:58;13.10;99.90
18541;DHT22;9400;50.924;5.328;2023-03-23T07:32:25;13.10;99.90
18541;DHT22;9400;50.924;5.328;2023-03-23T07:34:53;13.20;99.90
18541;DHT22;9400;50.924;5.328;2023-03-23T07:37:22;13.20;99.90
18541;DHT22;9400;50.924;5.328;2023-03-23T07:39:50;13.20;99.90
18541;DHT22;9400;50.924;5.328;2023-03-23T07:42:19;13.20;99.90
18541;DHT22;9400;50.924;5.328;2023-03-23T07:44:46;13.30;99.90
18541;DHT22;9400;50.924;5.328;2023-03-23T07:47:15;13.30;99.90
18541;DHT22;9400;50.924;5.328;2023-03-23T07:49:43;13.30;99.90
18541;DHT22;9400;50.924;5.328;2023-03-23T07:52:10;13.30;99.90
18541;DHT22;9400;50.924;5.328;2023-03-23T07:54:39;13.30;99.90
18541;DHT22;9400;50.924;5.328;2023-03-23T07:57:06;13.30;99.90
18541;DHT22;9400;50.924;5.328;2023-03-23T08:02:53;13.30;99.90
18541;DHT22;9400;50.924;5.328;2023-03-23T08:05:27;13.30;99.90
18541;DHT22;9400;50.924;5.328;2023-03-23T08:08:00;13.30;99.90
18541;DHT22;9400;50.924;5.328;2023-03-23T08:10:27;13.30;99.90
18541;DHT22;9400;50.924;5.328;2023-03-23T08:12:56;13.30;99.90
18541;DHT22;9400;50.924;5.328;2023-03-23T08:15:26;13.30;99.90
18541;DHT22;9400;50.924;5.328;2023-03-23T08:17:54;13.20;99.90
18541;DHT22;9400;50.924;5.328;2023-03-23T08:20:23;13.30;99.90
18541;DHT22;9400;50.924;5.328;2023-03-23T08:22:53;13.20;99.90
18541;DHT22;9400;50.924;5.328;2023-03-23T08:25:22;13.20;99.90
18541;DHT22;9400;50.924;5.328;2023-03-23T08:27:51;13.20;99.90
18541;DHT22;9400;50.924;5.328;2023-03-23T08:30:21;13.20;99.90
18541;DHT22;9400;50.924;5.328;2023-03-23T08:32:52;13.20;99.90
18541;DHT22;9400;50.924;5.328;2023-03-23T08:35:20;13.10;99.90
18541;DHT22;9400;50.924;5.328;2023-03-23T08:37:48;13.00;99.90
18541;DHT22;9400;50.924;5.328;2023-03-23T08:40:18;13.10;99.90
18541;DHT22;9400;50.924;5.328;2023-03-23T08:42:48;13.00;99.90
18541;DHT22;9400;50.924;5.328;2023-03-23T08:45:18;12.90;99.90
18541;DHT22;9400;50.924;5.328;2023-03-23T08:47:52;12.50;99.90
18541;DHT22;9400;50.924;5.328;2023-03-23T08:50:22;12.10;99.90
18541;DHT22;9400;50.924;5.328;2023-03-23T08:52:50;11.80;99.90
18541;DHT22;9400;50.924;5.328;2023-03-23T08:55:19;11.70;99.90
18541;DHT22;9400;50.924;5.328;2023-03-23T08:57:47;11.70;99.90
18541;DHT22;9400;50.924;5.328;2023-03-23T09:00:18;11.50;99.90
18541;DHT22;9400;50.924;5.328;2023-03-23T09:02:48;11.40;99.90
18541;DHT22;9400;50.924;5.328;2023-03-23T09:05:20;11.40;99.90
18541;DHT22;9400;50.924;5.328;2023-03-23T09:07:50;11.30;99.90
18541;DHT22;9400;50.924;5.328;2023-03-23T09:10:19;11.30;99.90
18541;DHT22;9400;50.924;5.328;2023-03-23T09:12:48;11.30;99.90
18541;DHT22;9400;50.924;5.328;2023-03-23T09:15:16;11.10;99.90
18541;DHT22;9400;50.924;5.328;2023-03-23T09:17:46;11.10;99.90
18541;DHT22;9400;50.924;5.328;2023-03-23T09:20:15;11.10;99.90
18541;DHT22;9400;50.924;5.328;2023-03-23T09:22:49;11.20;99.90
18541;DHT22;9400;50.924;5.328;2023-03-23T09:25:18;11.30;99.90
18541;DHT22;9400;50.924;5.328;2023-03-23T09:27:49;11.50;99.90
18541;DHT22;9400;50.924;5.328;2023-03-23T09:30:19;11.50;99.90
18541;DHT22;9400;50.924;5.328;2023-03-23T09:32:47;11.80;99.90
18541;DHT22;9400;50.924;5.328;2023-03-23T09:35:15;11.90;99.90
18541;DHT22;9400;50.924;5.328;2023-03-23T09:37:44;12.00;99.90
18541;DHT22;9400;50.924;5.328;2023-03-23T09:40:16;12.10;99.90
18541;DHT22;9400;50.924;5.328;2023-03-23T09:43:01;12.00;99.90
18541;DHT22;9400;50.924;5.328;2023-03-23T09:45:39;12.10;99.90
18541;DHT22;9400;50.924;5.328;2023-03-23T09:48:24;12.10;99.90
18541;DHT22;9400;50.924;5.328;2023-03-23T09:50:59;12.10;99.90
18541;DHT22;9400;50.924;5.328;2023-03-23T09:53:32;12.00;99.90
18541;DHT22;9400;50.924;5.328;2023-03-23T09:56:10;11.80;99.90
18541;DHT22;9400;50.924;5.328;2023-03-23T09:58:45;11.70;99.90
18541;DHT22;9400;50.924;5.328;2023-03-23T10:01:19;11.70;99.90
18541;DHT22;9400;50.924;5.328;2023-03-23T10:03:47;11.70;99.90
18541;DHT22;9400;50.924;5.328;2023-03-23T10:06:18;11.80;99.90
18541;DHT22;9400;50.924;5.328;2023-03-23T10:08:47;12.00;99.90
18541;DHT22;9400;50.924;5.328;2023-03-23T10:11:25;12.10;99.90
18541;DHT22;9400;50.924;5.328;2023-03-23T10:14:10;12.30;99.90
18541;DHT22;9400;50.924;5.328;2023-03-23T10:16:45;12.20;99.90
18541;DHT22;9400;50.924;5.328;2023-03-23T10:19:20;12.10;99.90
18541;DHT22;9400;50.924;5.328;2023-03-23T10:21:55;12.20;99.90
18541;DHT22;9400;50.924;5.328;2023-03-23T10:24:26;12.10;99.90
18541;DHT22;9400;50.924;5.328;2023-03-23T10:27:06;12.20;99.90
18541;DHT22;9400;50.924;5.328;2023-03-23T10:29:45;12.30;99.90
18541;DHT22;9400;50.924;5.328;2023-03-23T10:32:18;12.20;99.90
18541;DHT22;9400;50.924;5.328;2023-03-23T10:34:53;12.30;99.90
18541;DHT22;9400;50.924;5.328;2023-03-23T10:37:25;12.30;99.90
18541;DHT22;9400;50.924;5.328;2023-03-23T10:39:56;12.50;99.90
18541;DHT22;9400;50.924;5.328;2023-03-23T10:42:29;12.60;99.90
18541;DHT22;9400;50.924;5.328;2023-03-23T10:44:59;12.60;99.90
18541;DHT22;9400;50.924;5.328;2023-03-23T10:47:27;12.70;99.90
18541;DHT22;9400;50.924;5.328;2023-03-23T10:49:58;12.70;99.90
18541;DHT22;9400;50.924;5.328;2023-03-23T10:52:31;12.80;99.90
18541;DHT22;9400;50.924;5.328;2023-03-23T10:55:04;12.80;99.90
18541;DHT22;9400;50.924;5.328;2023-03-23T10:57:36;12.90;99.90
18541;DHT22;9400;50.924;5.328;2023-03-23T11:00:06;12.70;99.90
18541;DHT22;9400;50.924;5.328;2023-03-23T11:02:44;12.60;99.90
18541;DHT22;9400;50.924;5.328;2023-03-23T11:05:20;12.50;99.90
18541;DHT22;9400;50.924;5.328;2023-03-23T11:07:53;12.60;99.90
18541;DHT22;9400;50.924;5.328;2023-03-23T11:10:25;12.60;99.90
18541;DHT22;9400;50.924;5.328;2023-03-23T11:13:01;12.50;99.90
18541;DHT22;9400;50.924;5.328;2023-03-23T11:15:32;12.40;99.90
18541;DHT22;9400;50.924;5.328;2023-03-23T11:18:10;12.40;99.90
18541;DHT22;9400;50.924;5.328;2023-03-23T11:20:46;12.40;99.90
18541;DHT22;9400;50.924;5.328;2023-03-23T11:23:20;12.40;99.90
18541;DHT22;9400;50.924;5.328;2023-03-23T11:25:59;12.40;99.90
18541;DHT22;9400;50.924;5.328;2023-03-23T11:28:36;12.60;99.90
18541;DHT22;9400;50.924;5.328;2023-03-23T11:31:13;12.70;99.90
18541;DHT22;9400;50.924;5.328;2023-03-23T11:33:52;12.60;99.90
18541;DHT22;9400;50.924;5.328;2023-03-23T11:36:33;12.80;99.90
18541;DHT22;9400;50.924;5.328;2023-03-23T11:39:01;13.20;99.90
18541;DHT22;9400;50.924;5.328;2023-03-23T11:41:37;13.50;99.90
18541;DHT22;9400;50.924;5.328;2023-03-23T11:44:11;13.70;99.90
18541;DHT22;9400;50.924;5.328;2023-03-23T11:46:49;14.00;99.90
18541;DHT22;9400;50.924;5.328;2023-03-23T11:49:35;13.90;99.90
18541;DHT22;9400;50.924;5.328;2023-03-23T11:52:25;14.20;99.90
18541;DHT22;9400;50.924;5.328;2023-03-23T11:55:03;13.90;99.90
18541;DHT22;9400;50.924;5.328;2023-03-23T11:57:31;13.70;99.90
18541;DHT22;9400;50.924;5.328;2023-03-23T12:00:01;13.60;99.90
18541;DHT22;9400;50.924;5.328;2023-03-23T12:02:43;13.40;99.90
18541;DHT22;9400;50.924;5.328;2023-03-23T12:05:32;13.80;99.90
18541;DHT22;9400;50.924;5.328;2023-03-23T12:08:13;14.10;99.90
18541;DHT22;9400;50.924;5.328;2023-03-23T12:10:49;14.10;99.90
18541;DHT22;9400;50.924;5.328;2023-03-23T12:13:39;14.10;99.90
18541;DHT22;9400;50.924;5.328;2023-03-23T12:16:26;14.30;99.90
18541;DHT22;9400;50.924;5.328;2023-03-23T12:19:00;14.20;99.90
18541;DHT22;9400;50.924;5.328;2023-03-23T12:21:37;14.30;99.90
18541;DHT22;9400;50.924;5.328;2023-03-23T12:24:16;14.30;99.90
18541;DHT22;9400;50.924;5.328;2023-03-23T12:27:00;14.40;99.90
18541;DHT22;9400;50.924;5.328;2023-03-23T12:29:43;14.50;99.90
18541;DHT22;9400;50.924;5.328;2023-03-23T12:32:33;14.80;99.90
18541;DHT22;9400;50.924;5.328;2023-03-23T12:35:18;15.00;99.90
18541;DHT22;9400;50.924;5.328;2023-03-23T12:37:59;15.00;99.90
18541;DHT22;9400;50.924;5.328;2023-03-23T12:40:47;14.90;99.90
18541;DHT22;9400;50.924;5.328;2023-03-23T12:43:22;14.70;99.90
18541;DHT22;9400;50.924;5.328;2023-03-23T12:46:09;14.60;99.90
18541;DHT22;9400;50.924;5.328;2023-03-23T12:48:42;14.50;99.90
18541;DHT22;9400;50.924;5.328;2023-03-23T12:51:17;14.50;99.90
18541;DHT22;9400;50.924;5.328;2023-03-23T12:53:55;14.30;99.90
18541;DHT22;9400;50.924;5.328;2023-03-23T12:56:33;14.30;99.90
18541;DHT22;9400;50.924;5.328;2023-03-23T12:59:17;14.20;99.90
18541;DHT22;9400;50.924;5.328;2023-03-23T13:01:54;14.60;99.90
18541;DHT22;9400;50.924;5.328;2023-03-23T13:04:36;14.90;99.90
18541;DHT22;9400;50.924;5.328;2023-03-23T13:07:08;14.90;99.90
18541;DHT22;9400;50.924;5.328;2023-03-23T13:09:50;15.00;99.90
18541;DHT22;9400;50.924;5.328;2023-03-23T13:12:19;15.00;99.90
18541;DHT22;9400;50.924;5.328;2023-03-23T13:15:03;15.00;99.90
18541;DHT22;9400;50.924;5.328;2023-03-23T13:17:38;14.80;99.90
18541;DHT22;9400;50.924;5.328;2023-03-23T13:20:37;14.70;99.90
18541;DHT22;9400;50.924;5.328;2023-03-23T13:23:16;14.60;99.90
18541;DHT22;9400;50.924;5.328;2023-03-23T13:25:54;14.60;99.90
18541;DHT22;9400;50.924;5.328;2023-03-23T13:28:25;14.60;99.90
18541;DHT22;9400;50.924;5.328;2023-03-23T13:30:56;14.60;99.90
18541;DHT22;9400;50.924;5.328;2023-03-23T13:33:25;14.50;99.90
18541;DHT22;9400;50.924;5.328;2023-03-23T13:35:55;14.50;99.90
18541;DHT22;9400;50.924;5.328;2023-03-23T13:38:25;14.40;99.90
18541;DHT22;9400;50.924;5.328;2023-03-23T13:40:54;14.00;99.90
18541;DHT22;9400;50.924;5.328;2023-03-23T13:43:29;13.90;99.90
18541;DHT22;9400;50.924;5.328;2023-03-23T13:46:08;13.40;99.90
18541;DHT22;9400;50.924;5.328;2023-03-23T13:48:42;13.00;99.90
18541;DHT22;9400;50.924;5.328;2023-03-23T13:51:32;12.90;99.90
18541;DHT22;9400;50.924;5.328;2023-03-23T13:54:24;13.00;99.90
18541;DHT22;9400;50.924;5.328;2023-03-23T13:56:55;14.40;99.90
18541;DHT22;9400;50.924;5.328;2023-03-23T13:59:34;17.10;99.90
18541;DHT22;9400;50.924;5.328;2023-03-23T14:02:31;18.80;99.90
18541;DHT22;9400;50.924;5.328;2023-03-23T14:05:10;18.90;99.90
18541;DHT22;9400;50.924;5.328;2023-03-23T14:07:55;20.30;99.90
18541;DHT22;9400;50.924;5.328;2023-03-23T14:10:32;20.70;99.90
18541;DHT22;9400;50.924;5.328;2023-03-23T14:13:02;20.90;99.90
18541;DHT22;9400;50.924;5.328;2023-03-23T14:15:42;20.70;99.90
18541;DHT22;9400;50.924;5.328;2023-03-23T14:18:14;19.20;99.90
18541;DHT22;9400;50.924;5.328;2023-03-23T14:20:46;17.30;99.90
18541;DHT22;9400;50.924;5.328;2023-03-23T14:23:24;16.30;99.90
18541;DHT22;9400;50.924;5.328;2023-03-23T14:26:00;16.00;99.90
18541;DHT22;9400;50.924;5.328;2023-03-23T14:28:38;16.00;99.90
18541;DHT22;9400;50.924;5.328;2023-03-23T14:31:17;15.80;99.90
18541;DHT22;9400;50.924;5.328;2023-03-23T14:33:45;16.00;99.90
18541;DHT22;9400;50.924;5.328;2023-03-23T14:36:22;16.40;99.90
18541;DHT22;9400;50.924;5.328;2023-03-23T14:39:00;16.60;99.90
18541;DHT22;9400;50.924;5.328;2023-03-23T14:41:30;16.60;99.90
18541;DHT22;9400;50.924;5.328;2023-03-23T14:44:01;16.50;99.90
18541;DHT22;9400;50.924;5.328;2023-03-23T14:46:30;16.20;99.90
18541;DHT22;9400;50.924;5.328;2023-03-23T14:49:04;15.70;99.90
18541;DHT22;9400;50.924;5.328;2023-03-23T14:51:32;15.50;99.90
18541;DHT22;9400;50.924;5.328;2023-03-23T14:54:01;15.30;99.90
18541;DHT22;9400;50.924;5.328;2023-03-23T14:56:34;15.30;99.90
18541;DHT22;9400;50.924;5.328;2023-03-23T14:59:04;15.50;99.90
18541;DHT22;9400;50.924;5.328;2023-03-23T15:01:38;16.10;99.90
18541;DHT22;9400;50.924;5.328;2023-03-23T15:04:09;16.90;99.90
18541;DHT22;9400;50.924;5.328;2023-03-23T15:06:39;16.60;99.90
18541;DHT22;9400;50.924;5.328;2023-03-23T15:09:14;16.30;99.90
18541;DHT22;9400;50.924;5.328;2023-03-23T15:11:52;16.00;99.90
18541;DHT22;9400;50.924;5.328;2023-03-23T15:14:22;15.80;99.90
18541;DHT22;9400;50.924;5.328;2023-03-23T15:16:54;15.70;99.90
18541;DHT22;9400;50.924;5.328;2023-03-23T15:19:25;15.60;99.90
18541;DHT22;9400;50.924;5.328;2023-03-23T15:21:55;15.50;99.90
18541;DHT22;9400;50.924;5.328;2023-03-23T15:24:32;15.50;99.90
18541;DHT22;9400;50.924;5.328;2023-03-23T15:27:12;15.40;99.90
18541;DHT22;9400;50.924;5.328;2023-03-23T15:29:48;15.40;99.90
18541;DHT22;9400;50.924;5.328;2023-03-23T15:32:22;15.50;99.90
18541;DHT22;9400;50.924;5.328;2023-03-23T15:34:50;15.50;99.90
18541;DHT22;9400;50.924;5.328;2023-03-23T15:37:21;15.50;99.90
18541;DHT22;9400;50.924;5.328;2023-03-23T15:39:52;15.60;99.90
18541;DHT22;9400;50.924;5.328;2023-03-23T15:42:26;15.60;99.90
18541;DHT22;9400;50.924;5.328;2023-03-23T15:45:02;15.50;99.90
18541;DHT22;9400;50.924;5.328;2023-03-23T15:47:36;15.50;99.90
18541;DHT22;9400;50.924;5.328;2023-03-23T15:50:10;15.60;99.90
18541;DHT22;9400;50.924;5.328;2023-03-23T15:52:38;15.80;99.90
18541;DHT22;9400;50.924;5.328;2023-03-23T15:55:21;16.00;99.90
18541;DHT22;9400;50.924;5.328;2023-03-23T15:57:49;16.60;99.90
18541;DHT22;9400;50.924;5.328;2023-03-23T16:00:19;17.70;99.90
18541;DHT22;9400;50.924;5.328;2023-03-23T16:02:49;18.30;99.90
18541;DHT22;9400;50.924;5.328;2023-03-23T16:05:19;18.30;99.90
18541;DHT22;9400;50.924;5.328;2023-03-23T16:07:47;18.30;99.90
18541;DHT22;9400;50.924;5.328;2023-03-23T16:10:19;18.50;99.90
18541;DHT22;9400;50.924;5.328;2023-03-23T16:12:54;18.70;99.90
18541;DHT22;9400;50.924;5.328;2023-03-23T16:15:26;18.60;99.90
18541;DHT22;9400;50.924;5.328;2023-03-23T16:17:54;17.80;99.90
18541;DHT22;9400;50.924;5.328;2023-03-23T16:20:23;17.50;99.90
18541;DHT22;9400;50.924;5.328;2023-03-23T16:22:51;17.00;99.90
18541;DHT22;9400;50.924;5.328;2023-03-23T16:25:21;16.60;99.90
18541;DHT22;9400;50.924;5.328;2023-03-23T16:27:48;16.50;99.90